sensor_id;sensor_type;location;lat;lon;timestamp;temperature;humidity
37050;DHT22;22958;51.232;6.826;2023-09-19T00:00:57;16.50;99.90
37050;DHT22;22958;51.232;6.826;2023-09-19T00:03:23;16.50;99.90
37050;DHT22;22958;51.232;6.826;2023-09-19T00:05:50;16.40;99.90
37050;DHT22;22958;51.232;6.826;2023-09-19T00:08:16;16.40;99.90
37050;DHT22;22958;51.232;6.826;2023-09-19T00:10:42;16.40;99.90
37050;DHT22;22958;51.232;6.826;2023-09-19T00:13:09;16.40;99.90
37050;DHT22;22958;51.232;6.826;2023-09-19T00:15:40;16.30;99.90
37050;DHT22;22958;51.232;6.826;2023-09-19T00:18:06;16.30;99.90
37050;DHT22;22958;51.232;6.826;2023-09-19T00:20:32;16.30;99.90
37050;DHT22;22958;51.232;6.826;2023-09-19T00:23:00;16.30;99.90
37050;DHT22;22958;51.232;6.826;2023-09-19T00:25:33;16.30;99.90
37050;DHT22;22958;51.232;6.826;2023-09-19T00:28:00;16.30;99.90
37050;DHT22;22958;51.232;6.826;2023-09-19T00:30:26;16.20;99.90
37050;DHT22;22958;51.232;6.826;2023-09-19T00:32:52;16.20;99.90
37050;DHT22;22958;51.232;6.826;2023-09-19T00:35:21;16.20;99.90
37050;DHT22;22958;51.232;6.826;2023-09-19T00:37:50;16.20;99.90
37050;DHT22;22958;51.232;6.826;2023-09-19T00:40:16;16.30;99.90
37050;DHT22;22958;51.232;6.826;2023-09-19T00:42:45;16.20;99.90
37050;DHT22;22958;51.232;6.826;2023-09-19T00:45:13;16.20;99.90
37050;DHT22;22958;51.232;6.826;2023-09-19T00:47:49;16.20;99.90
37050;DHT22;22958;51.232;6.826;2023-09-19T00:50:20;16.30;99.90
37050;DHT22;22958;51.232;6.826;2023-09-19T00:52:48;16.20;99.90
37050;DHT22;22958;51.232;6.826;2023-09-19T00:55:15;16.20;99.90
37050;DHT22;22958;51.232;6.826;2023-09-19T00:57:41;16.30;99.90
37050;DHT22;22958;51.232;6.826;2023-09-19T01:00:09;16.30;99.90
37050;DHT22;22958;51.232;6.826;2023-09-19T01:02:42;16.20;99.90
37050;DHT22;22958;51.232;6.826;2023-09-19T01:05:11;16.20;99.90
37050;DHT22;22958;51.232;6.826;2023-09-19T01:07:38;16.20;99.90
37050;DHT22;22958;51.232;6.826;2023-09-19T01:10:08;16.20;99.90
37050;DHT22;22958;51.232;6.826;2023-09-19T01:15:53;16.20;99.90
37050;DHT22;22958;51.232;6.826;2023-09-19T01:21:05;16.20;99.90
37050;DHT22;22958;51.232;6.826;2023-09-19T01:26:30;16.10;99.90
37050;DHT22;22958;51.232;6.826;2023-09-19T01:31:57;16.10;99.90
37050;DHT22;22958;51.232;6.826;2023-09-19T01:34:26;16.10;99.90
37050;DHT22;22958;51.232;6.826;2023-09-19T01:36:52;16.10;99.90
37050;DHT22;22958;51.232;6.826;2023-09-19T01:39:17;16.10;99.90
37050;DHT22;22958;51.232;6.826;2023-09-19T01:44:21;16.10;99.90
37050;DHT22;22958;51.232;6.826;2023-09-19T01:46:47;16.10;99.90
37050;DHT22;22958;51.232;6.826;2023-09-19T01:50:17;16.10;99.90
37050;DHT22;22958;51.232;6.826;2023-09-19T01:52:13;16.10;99.90
37050;DHT22;22958;51.232;6.826;2023-09-19T01:54:52;16.10;99.90
37050;DHT22;22958;51.232;6.826;2023-09-19T01:57:27;16.00;99.90
37050;DHT22;22958;51.232;6.826;2023-09-19T02:00:07;16.10;99.90
37050;DHT22;22958;51.232;6.826;2023-09-19T02:02:36;16.10;99.90
37050;DHT22;22958;51.232;6.826;2023-09-19T02:05:04;16.10;99.90
37050;DHT22;22958;51.232;6.826;2023-09-19T02:07:30;16.00;99.90
37050;DHT22;22958;51.232;6.826;2023-09-19T02:09:59;16.00;99.90
37050;DHT22;22958;51.232;6.826;2023-09-19T02:12:32;16.00;99.90
37050;DHT22;22958;51.232;6.826;2023-09-19T02:14:58;16.00;99.90
37050;DHT22;22958;51.232;6.826;2023-09-19T02:17:25;16.00;99.90
37050;DHT22;22958;51.232;6.826;2023-09-19T02:19:54;15.90;99.90
37050;DHT22;22958;51.232;6.826;2023-09-19T02:22:24;15.90;99.90
37050;DHT22;22958;51.232;6.826;2023-09-19T02:24:50;16.00;99.90
37050;DHT22;22958;51.232;6.826;2023-09-19T02:27:16;16.00;99.90
37050;DHT22;22958;51.232;6.826;2023-09-19T02:29:43;15.90;99.90
37050;DHT22;22958;51.232;6.826;2023-09-19T02:32:08;15.90;99.90
37050;DHT22;22958;51.232;6.826;2023-09-19T02:34:37;15.90;99.90
37050;DHT22;22958;51.232;6.826;2023-09-19T02:37:07;15.90;99.90
37050;DHT22;22958;51.232;6.826;2023-09-19T02:39:34;15.90;99.90
37050;DHT22;22958;51.232;6.826;2023-09-19T02:42:00;15.90;99.90
37050;DHT22;22958;51.232;6.826;2023-09-19T02:44:25;15.90;99.90
37050;DHT22;22958;51.232;6.826;2023-09-19T02:46:51;15.80;99.90
37050;DHT22;22958;51.232;6.826;2023-09-19T02:49:17;15.80;99.90
37050;DHT22;22958;51.232;6.826;2023-09-19T02:51:43;15.80;99.90
37050;DHT22;22958;51.232;6.826;2023-09-19T02:54:09;15.80;99.90
37050;DHT22;22958;51.232;6.826;2023-09-19T02:56:36;15.80;99.90
37050;DHT22;22958;51.232;6.826;2023-09-19T02:59:02;15.80;99.90
37050;DHT22;22958;51.232;6.826;2023-09-19T03:01:28;15.80;99.90
37050;DHT22;22958;51.232;6.826;2023-09-19T03:03:54;15.80;99.90
37050;DHT22;22958;51.232;6.826;2023-09-19T03:06:20;15.70;99.90
37050;DHT22;22958;51.232;6.826;2023-09-19T03:08:47;15.70;99.90
37050;DHT22;22958;51.232;6.826;2023-09-19T03:11:14;15.70;99.90
37050;DHT22;22958;51.232;6.826;2023-09-19T03:13:40;15.70;99.90
37050;DHT22;22958;51.232;6.826;2023-09-19T03:16:07;15.70;99.90
37050;DHT22;22958;51.232;6.826;2023-09-19T03:18:34;15.60;99.90
37050;DHT22;22958;51.232;6.826;2023-09-19T03:20:59;15.60;99.90
37050;DHT22;22958;51.232;6.826;2023-09-19T03:23:26;15.60;99.90
37050;DHT22;22958;51.232;6.826;2023-09-19T03:25:52;15.60;99.90
37050;DHT22;22958;51.232;6.826;2023-09-19T03:28:21;15.50;99.90
37050;DHT22;22958;51.232;6.826;2023-09-19T03:30:58;15.50;99.90
37050;DHT22;22958;51.232;6.826;2023-09-19T03:33:24;15.50;99.90
37050;DHT22;22958;51.232;6.826;2023-09-19T03:35:53;15.50;99.90
37050;DHT22;22958;51.232;6.826;2023-09-19T03:38:20;15.50;99.90
37050;DHT22;22958;51.232;6.826;2023-09-19T03:40:47;15.50;99.90
37050;DHT22;22958;51.232;6.826;2023-09-19T03:43:13;15.50;99.90
37050;DHT22;22958;51.232;6.826;2023-09-19T03:45:38;15.50;99.90
37050;DHT22;22958;51.232;6.826;2023-09-19T03:48:08;15.50;99.90
37050;DHT22;22958;51.232;6.826;2023-09-19T03:50:34;15.40;99.90
37050;DHT22;22958;51.232;6.826;2023-09-19T03:52:59;15.50;99.90
37050;DHT22;22958;51.232;6.826;2023-09-19T03:55:25;15.40;99.90
37050;DHT22;22958;51.232;6.826;2023-09-19T03:57:50;15.30;99.90
37050;DHT22;22958;51.232;6.826;2023-09-19T04:00:16;15.40;99.90
37050;DHT22;22958;51.232;6.826;2023-09-19T04:02:46;15.40;99.90
37050;DHT22;22958;51.232;6.826;2023-09-19T04:05:12;15.40;99.90
37050;DHT22;22958;51.232;6.826;2023-09-19T04:07:37;15.40;99.90
37050;DHT22;22958;51.232;6.826;2023-09-19T04:10:03;15.40;99.90
37050;DHT22;22958;51.232;6.826;2023-09-19T04:12:29;15.40;99.90
37050;DHT22;22958;51.232;6.826;2023-09-19T04:14:54;15.30;99.90
37050;DHT22;22958;51.232;6.826;2023-09-19T04:17:20;15.30;99.90
37050;DHT22;22958;51.232;6.826;2023-09-19T04:19:45;15.30;99.90
37050;DHT22;22958;51.232;6.826;2023-09-19T04:22:11;15.30;99.90
37050;DHT22;22958;51.232;6.826;2023-09-19T04:24:38;15.30;99.90
37050;DHT22;22958;51.232;6.826;2023-09-19T04:27:04;15.30;99.90
37050;DHT22;22958;51.232;6.826;2023-09-19T04:29:30;15.30;99.90
37050;DHT22;22958;51.232;6.826;2023-09-19T04:31:56;15.30;99.90
37050;DHT22;22958;51.232;6.826;2023-09-19T04:34:24;15.30;99.90
37050;DHT22;22958;51.232;6.826;2023-09-19T04:36:50;15.30;99.90
37050;DHT22;22958;51.232;6.826;2023-09-19T04:39:16;15.30;99.90
37050;DHT22;22958;51.232;6.826;2023-09-19T04:41:43;15.30;99.90
37050;DHT22;22958;51.232;6.826;2023-09-19T04:44:11;15.30;99.90
37050;DHT22;22958;51.232;6.826;2023-09-19T04:46:39;15.30;99.90
37050;DHT22;22958;51.232;6.826;2023-09-19T04:49:04;15.30;99.90
37050;DHT22;22958;51.232;6.826;2023-09-19T04:51:30;15.30;99.90
37050;DHT22;22958;51.232;6.826;2023-09-19T04:54:00;15.30;99.90
37050;DHT22;22958;51.232;6.826;2023-09-19T04:56:25;15.30;99.90
37050;DHT22;22958;51.232;6.826;2023-09-19T04:58:51;15.20;99.90
37050;DHT22;22958;51.232;6.826;2023-09-19T05:01:16;15.20;99.90
37050;DHT22;22958;51.232;6.826;2023-09-19T05:03:42;15.20;99.90
37050;DHT22;22958;51.232;6.826;2023-09-19T05:06:07;15.20;99.90
37050;DHT22;22958;51.232;6.826;2023-09-19T05:08:33;15.20;99.90
37050;DHT22;22958;51.232;6.826;2023-09-19T05:11:02;15.20;99.90
37050;DHT22;22958;51.232;6.826;2023-09-19T05:13:27;15.30;99.90
37050;DHT22;22958;51.232;6.826;2023-09-19T05:15:53;15.20;99.90
37050;DHT22;22958;51.232;6.826;2023-09-19T05:18:18;15.30;99.90
37050;DHT22;22958;51.232;6.826;2023-09-19T05:20:44;15.30;99.90
37050;DHT22;22958;51.232;6.826;2023-09-19T05:23:09;15.30;99.90
37050;DHT22;22958;51.232;6.826;2023-09-19T05:25:38;15.40;99.90
37050;DHT22;22958;51.232;6.826;2023-09-19T05:28:09;15.40;99.90
37050;DHT22;22958;51.232;6.826;2023-09-19T05:30:35;15.40;99.90
37050;DHT22;22958;51.232;6.826;2023-09-19T05:33:04;15.40;99.90
37050;DHT22;22958;51.232;6.826;2023-09-19T05:35:30;15.50;99.90
37050;DHT22;22958;51.232;6.826;2023-09-19T05:37:56;15.50;99.90
37050;DHT22;22958;51.232;6.826;2023-09-19T05:40:24;15.50;99.90
37050;DHT22;22958;51.232;6.826;2023-09-19T05:42:49;15.50;99.90
37050;DHT22;22958;51.232;6.826;2023-09-19T05:45:16;15.50;99.90
37050;DHT22;22958;51.232;6.826;2023-09-19T05:47:47;15.50;99.90
37050;DHT22;22958;51.232;6.826;2023-09-19T05:50:13;15.60;99.90
37050;DHT22;22958;51.232;6.826;2023-09-19T05:52:40;15.60;99.90
37050;DHT22;22958;51.232;6.826;2023-09-19T05:55:08;15.60;99.90
37050;DHT22;22958;51.232;6.826;2023-09-19T05:57:34;15.60;99.90
37050;DHT22;22958;51.232;6.826;2023-09-19T06:00:00;15.70;99.90
37050;DHT22;22958;51.232;6.826;2023-09-19T06:02:26;15.70;99.90
37050;DHT22;22958;51.232;6.826;2023-09-19T06:04:55;15.70;99.90
37050;DHT22;22958;51.232;6.826;2023-09-19T06:07:22;15.70;99.90
37050;DHT22;22958;51.232;6.826;2023-09-19T06:09:51;15.70;99.90
37050;DHT22;22958;51.232;6.826;2023-09-19T06:12:17;15.70;99.90
37050;DHT22;22958;51.232;6.826;2023-09-19T06:14:43;15.70;99.90
37050;DHT22;22958;51.232;6.826;2023-09-19T06:17:09;15.80;99.90
37050;DHT22;22958;51.232;6.826;2023-09-19T06:19:34;15.80;99.90
37050;DHT22;22958;51.232;6.826;2023-09-19T06:22:00;15.80;99.90
37050;DHT22;22958;51.232;6.826;2023-09-19T06:24:25;15.80;99.90
37050;DHT22;22958;51.232;6.826;2023-09-19T06:26:51;15.80;99.90
37050;DHT22;22958;51.232;6.826;2023-09-19T06:29:18;15.80;99.90
37050;DHT22;22958;51.232;6.826;2023-09-19T06:31:46;15.90;99.90
37050;DHT22;22958;51.232;6.826;2023-09-19T06:34:12;15.80;99.90
37050;DHT22;22958;51.232;6.826;2023-09-19T06:36:40;15.80;99.90
37050;DHT22;22958;51.232;6.826;2023-09-19T06:39:06;15.90;99.90
37050;DHT22;22958;51.232;6.826;2023-09-19T06:41:32;15.90;99.90
37050;DHT22;22958;51.232;6.826;2023-09-19T06:43:57;15.90;99.90
37050;DHT22;22958;51.232;6.826;2023-09-19T06:46:23;15.90;99.90
37050;DHT22;22958;51.232;6.826;2023-09-19T06:48:50;15.90;99.90
37050;DHT22;22958;51.232;6.826;2023-09-19T06:51:18;15.90;99.90
37050;DHT22;22958;51.232;6.826;2023-09-19T06:53:43;15.90;99.90
37050;DHT22;22958;51.232;6.826;2023-09-19T06:56:09;15.90;99.90
37050;DHT22;22958;51.232;6.826;2023-09-19T06:58:35;15.90;99.90
37050;DHT22;22958;51.232;6.826;2023-09-19T07:01:02;15.90;99.90
37050;DHT22;22958;51.232;6.826;2023-09-19T07:03:28;16.00;99.90
37050;DHT22;22958;51.232;6.826;2023-09-19T07:05:54;16.10;99.90
37050;DHT22;22958;51.232;6.826;2023-09-19T07:08:21;16.00;99.90
37050;DHT22;22958;51.232;6.826;2023-09-19T07:10:46;16.00;99.90
37050;DHT22;22958;51.232;6.826;2023-09-19T07:13:15;16.00;99.90
37050;DHT22;22958;51.232;6.826;2023-09-19T07:15:43;15.90;99.90
37050;DHT22;22958;51.232;6.826;2023-09-19T07:18:16;16.00;99.90
37050;DHT22;22958;51.232;6.826;2023-09-19T07:20:43;16.10;99.90
37050;DHT22;22958;51.232;6.826;2023-09-19T07:23:17;16.20;99.90
37050;DHT22;22958;51.232;6.826;2023-09-19T07:25:43;16.20;99.90
37050;DHT22;22958;51.232;6.826;2023-09-19T07:28:09;16.10;99.90
37050;DHT22;22958;51.232;6.826;2023-09-19T07:30:36;16.20;99.90
37050;DHT22;22958;51.232;6.826;2023-09-19T07:33:07;16.20;99.90
37050;DHT22;22958;51.232;6.826;2023-09-19T07:35:32;16.20;99.90
37050;DHT22;22958;51.232;6.826;2023-09-19T07:37:59;16.20;99.90
37050;DHT22;22958;51.232;6.826;2023-09-19T07:40:27;16.30;99.90
37050;DHT22;22958;51.232;6.826;2023-09-19T07:42:57;16.20;99.90
37050;DHT22;22958;51.232;6.826;2023-09-19T07:45:30;16.30;99.90
37050;DHT22;22958;51.232;6.826;2023-09-19T07:47:55;16.40;99.90
37050;DHT22;22958;51.232;6.826;2023-09-19T07:50:21;16.40;99.90
37050;DHT22;22958;51.232;6.826;2023-09-19T07:52:48;16.50;99.90
37050;DHT22;22958;51.232;6.826;2023-09-19T07:55:16;16.40;99.90
37050;DHT22;22958;51.232;6.826;2023-09-19T07:57:45;16.40;99.90
37050;DHT22;22958;51.232;6.826;2023-09-19T08:00:12;16.50;99.90
37050;DHT22;22958;51.232;6.826;2023-09-19T08:02:42;16.50;99.90
37050;DHT22;22958;51.232;6.826;2023-09-19T08:05:10;16.40;99.90
37050;DHT22;22958;51.232;6.826;2023-09-19T08:07:40;16.50;99.90
37050;DHT22;22958;51.232;6.826;2023-09-19T08:10:07;16.60;99.90
37050;DHT22;22958;51.232;6.826;2023-09-19T08:12:40;16.80;99.90
37050;DHT22;22958;51.232;6.826;2023-09-19T08:15:16;16.80;99.90
37050;DHT22;22958;51.232;6.826;2023-09-19T08:17:42;17.00;99.90
37050;DHT22;22958;51.232;6.826;2023-09-19T08:20:09;17.00;99.90
37050;DHT22;22958;51.232;6.826;2023-09-19T08:22:42;17.10;99.90
37050;DHT22;22958;51.232;6.826;2023-09-19T08:25:09;17.10;99.90
37050;DHT22;22958;51.232;6.826;2023-09-19T08:27:34;17.10;99.90
37050;DHT22;22958;51.232;6.826;2023-09-19T08:30:01;17.00;99.90
37050;DHT22;22958;51.232;6.826;2023-09-19T08:32:28;17.20;99.90
37050;DHT22;22958;51.232;6.826;2023-09-19T08:34:54;17.10;99.90
37050;DHT22;22958;51.232;6.826;2023-09-19T08:37:19;17.10;99.90
37050;DHT22;22958;51.232;6.826;2023-09-19T08:39:45;17.20;99.90
37050;DHT22;22958;51.232;6.826;2023-09-19T08:42:10;17.30;99.90
37050;DHT22;22958;51.232;6.826;2023-09-19T08:44:42;17.30;99.90
37050;DHT22;22958;51.232;6.826;2023-09-19T08:47:11;17.40;99.90
37050;DHT22;22958;51.232;6.826;2023-09-19T08:50:01;17.40;99.90
37050;DHT22;22958;51.232;6.826;2023-09-19T08:52:33;17.50;99.90
37050;DHT22;22958;51.232;6.826;2023-09-19T08:55:02;17.50;99.90
37050;DHT22;22958;51.232;6.826;2023-09-19T08:57:33;17.60;99.90
37050;DHT22;22958;51.232;6.826;2023-09-19T09:00:02;17.70;99.90
37050;DHT22;22958;51.232;6.826;2023-09-19T09:02:31;17.90;99.90
37050;DHT22;22958;51.232;6.826;2023-09-19T09:04:59;17.90;99.90
37050;DHT22;22958;51.232;6.826;2023-09-19T09:07:25;17.90;99.90
37050;DHT22;22958;51.232;6.826;2023-09-19T09:09:53;17.90;99.90
37050;DHT22;22958;51.232;6.826;2023-09-19T09:12:18;17.80;99.90
37050;DHT22;22958;51.232;6.826;2023-09-19T09:14:47;17.70;99.90
37050;DHT22;22958;51.232;6.826;2023-09-19T09:17:16;17.90;99.90
37050;DHT22;22958;51.232;6.826;2023-09-19T09:19:46;18.10;99.90
37050;DHT22;22958;51.232;6.826;2023-09-19T09:22:11;18.10;99.90
37050;DHT22;22958;51.232;6.826;2023-09-19T09:24:51;18.10;99.90
37050;DHT22;22958;51.232;6.826;2023-09-19T09:27:19;18.00;99.90
37050;DHT22;22958;51.232;6.826;2023-09-19T09:29:48;18.10;99.90
37050;DHT22;22958;51.232;6.826;2023-09-19T09:34:57;18.30;99.90
37050;DHT22;22958;51.232;6.826;2023-09-19T09:37:24;18.30;99.90
37050;DHT22;22958;51.232;6.826;2023-09-19T09:39:56;18.70;99.90
37050;DHT22;22958;51.232;6.826;2023-09-19T09:42:33;18.90;99.90
37050;DHT22;22958;51.232;6.826;2023-09-19T09:45:20;18.70;99.90
37050;DHT22;22958;51.232;6.826;2023-09-19T09:47:54;18.60;99.90
37050;DHT22;22958;51.232;6.826;2023-09-19T09:50:32;18.80;99.90
37050;DHT22;22958;51.232;6.826;2023-09-19T09:53:26;18.90;99.90
37050;DHT22;22958;51.232;6.826;2023-09-19T09:56:03;18.70;99.90
37050;DHT22;22958;51.232;6.826;2023-09-19T09:58:37;18.70;99.90
37050;DHT22;22958;51.232;6.826;2023-09-19T10:01:04;18.70;99.90
37050;DHT22;22958;51.232;6.826;2023-09-19T10:03:40;18.80;99.90
37050;DHT22;22958;51.232;6.826;2023-09-19T10:06:13;18.90;99.90
37050;DHT22;22958;51.232;6.826;2023-09-19T10:09:17;19.00;99.90
37050;DHT22;22958;51.232;6.826;2023-09-19T10:12:01;19.20;99.90
37050;DHT22;22958;51.232;6.826;2023-09-19T10:14:30;19.40;99.90
37050;DHT22;22958;51.232;6.826;2023-09-19T10:16:59;19.10;99.90
37050;DHT22;22958;51.232;6.826;2023-09-19T10:19:33;19.00;99.90
37050;DHT22;22958;51.232;6.826;2023-09-19T10:22:02;18.90;99.90
37050;DHT22;22958;51.232;6.826;2023-09-19T10:24:28;19.00;99.90
37050;DHT22;22958;51.232;6.826;2023-09-19T10:26:56;19.10;99.90
37050;DHT22;22958;51.232;6.826;2023-09-19T10:29:24;19.00;99.90
37050;DHT22;22958;51.232;6.826;2023-09-19T10:31:53;18.90;99.90
37050;DHT22;22958;51.232;6.826;2023-09-19T10:34:20;19.10;99.90
37050;DHT22;22958;51.232;6.826;2023-09-19T10:36:47;19.40;99.90
37050;DHT22;22958;51.232;6.826;2023-09-19T10:39:15;19.40;99.90
37050;DHT22;22958;51.232;6.826;2023-09-19T10:41:50;19.30;99.90
37050;DHT22;22958;51.232;6.826;2023-09-19T10:44:25;19.50;99.90
37050;DHT22;22958;51.232;6.826;2023-09-19T10:46:52;19.60;99.90
37050;DHT22;22958;51.232;6.826;2023-09-19T10:49:20;19.70;99.90
37050;DHT22;22958;51.232;6.826;2023-09-19T10:51:47;19.70;99.90
37050;DHT22;22958;51.232;6.826;2023-09-19T10:54:17;19.70;99.90
37050;DHT22;22958;51.232;6.826;2023-09-19T10:56:48;20.20;99.90
37050;DHT22;22958;51.232;6.826;2023-09-19T10:59:17;20.70;99.90
37050;DHT22;22958;51.232;6.826;2023-09-19T11:01:44;20.70;99.90
37050;DHT22;22958;51.232;6.826;2023-09-19T11:04:33;21.60;99.90
37050;DHT22;22958;51.232;6.826;2023-09-19T11:07:08;21.90;99.90
37050;DHT22;22958;51.232;6.826;2023-09-19T11:14:54;21.30;99.90
37050;DHT22;22958;51.232;6.826;2023-09-19T11:30:52;21.50;99.90
37050;DHT22;22958;51.232;6.826;2023-09-19T11:33:32;22.30;99.90
37050;DHT22;22958;51.232;6.826;2023-09-19T11:36:08;21.50;99.90
37050;DHT22;22958;51.232;6.826;2023-09-19T11:43:53;22.00;99.90
37050;DHT22;22958;51.232;6.826;2023-09-19T11:46:24;22.40;99.90
37050;DHT22;22958;51.232;6.826;2023-09-19T11:48:51;22.60;99.90
37050;DHT22;22958;51.232;6.826;2023-09-19T11:51:24;23.00;99.90
37050;DHT22;22958;51.232;6.826;2023-09-19T11:53:54;23.10;99.90
37050;DHT22;22958;51.232;6.826;2023-09-19T11:56:21;22.80;99.90
37050;DHT22;22958;51.232;6.826;2023-09-19T11:58:53;22.60;99.90
37050;DHT22;22958;51.232;6.826;2023-09-19T12:01:42;22.70;99.90
37050;DHT22;22958;51.232;6.826;2023-09-19T12:04:16;23.60;99.90
37050;DHT22;22958;51.232;6.826;2023-09-19T12:06:56;23.10;99.90
37050;DHT22;22958;51.232;6.826;2023-09-19T12:09:22;23.00;99.90
37050;DHT22;22958;51.232;6.826;2023-09-19T12:11:48;23.50;99.70
37050;DHT22;22958;51.232;6.826;2023-09-19T12:14:24;23.50;99.80
37050;DHT22;22958;51.232;6.826;2023-09-19T12:16:55;23.90;98.80
37050;DHT22;22958;51.232;6.826;2023-09-19T12:19:22;23.80;98.60
37050;DHT22;22958;51.232;6.826;2023-09-19T12:21:59;24.40;98.60
37050;DHT22;22958;51.232;6.826;2023-09-19T12:24:28;24.70;96.50
37050;DHT22;22958;51.232;6.826;2023-09-19T12:27:00;24.30;96.20
37050;DHT22;22958;51.232;6.826;2023-09-19T12:29:26;23.90;95.40
37050;DHT22;22958;51.232;6.826;2023-09-19T12:31:54;24.00;96.20
37050;DHT22;22958;51.232;6.826;2023-09-19T12:34:25;24.00;95.80
37050;DHT22;22958;51.232;6.826;2023-09-19T12:39:50;24.40;94.70
37050;DHT22;22958;51.232;6.826;2023-09-19T12:42:17;24.10;95.60
37050;DHT22;22958;51.232;6.826;2023-09-19T12:44:45;24.10;95.80
37050;DHT22;22958;51.232;6.826;2023-09-19T12:47:16;24.60;95.00
37050;DHT22;22958;51.232;6.826;2023-09-19T12:50:15;24.40;95.30
37050;DHT22;22958;51.232;6.826;2023-09-19T12:52:55;24.30;94.50
37050;DHT22;22958;51.232;6.826;2023-09-19T12:55:28;24.30;94.40
37050;DHT22;22958;51.232;6.826;2023-09-19T12:58:11;24.40;94.30
37050;DHT22;22958;51.232;6.826;2023-09-19T13:00:42;24.50;94.20
37050;DHT22;22958;51.232;6.826;2023-09-19T13:03:15;24.10;94.60
37050;DHT22;22958;51.232;6.826;2023-09-19T13:05:58;24.50;94.00
37050;DHT22;22958;51.232;6.826;2023-09-19T13:11:16;23.90;94.70
37050;DHT22;22958;51.232;6.826;2023-09-19T13:14:14;23.80;95.30
37050;DHT22;22958;51.232;6.826;2023-09-19T13:17:05;24.10;94.40
37050;DHT22;22958;51.232;6.826;2023-09-19T13:25:05;22.90;95.80
37050;DHT22;22958;51.232;6.826;2023-09-19T13:27:32;23.30;96.60
37050;DHT22;22958;51.232;6.826;2023-09-19T13:29:59;22.90;97.20
37050;DHT22;22958;51.232;6.826;2023-09-19T13:32:25;23.30;96.90
37050;DHT22;22958;51.232;6.826;2023-09-19T13:34:50;22.90;97.10
37050;DHT22;22958;51.232;6.826;2023-09-19T13:37:16;22.60;98.00
37050;DHT22;22958;51.232;6.826;2023-09-19T13:39:43;22.90;98.40
37050;DHT22;22958;51.232;6.826;2023-09-19T13:42:13;22.50;98.20
37050;DHT22;22958;51.232;6.826;2023-09-19T13:44:38;22.20;99.60
37050;DHT22;22958;51.232;6.826;2023-09-19T13:47:06;22.10;99.90
37050;DHT22;22958;51.232;6.826;2023-09-19T13:49:35;21.80;99.90
37050;DHT22;22958;51.232;6.826;2023-09-19T13:52:01;21.50;99.90
37050;DHT22;22958;51.232;6.826;2023-09-19T13:54:30;21.00;99.90
37050;DHT22;22958;51.232;6.826;2023-09-19T13:57:01;20.70;99.90
37050;DHT22;22958;51.232;6.826;2023-09-19T13:59:28;20.50;99.90
37050;DHT22;22958;51.232;6.826;2023-09-19T14:01:54;20.50;99.90
37050;DHT22;22958;51.232;6.826;2023-09-19T14:04:20;20.50;99.90
37050;DHT22;22958;51.232;6.826;2023-09-19T14:06:46;20.60;99.90
37050;DHT22;22958;51.232;6.826;2023-09-19T14:09:11;20.50;99.90
37050;DHT22;22958;51.232;6.826;2023-09-19T14:11:39;20.40;99.90
37050;DHT22;22958;51.232;6.826;2023-09-19T14:14:04;20.40;99.90
37050;DHT22;22958;51.232;6.826;2023-09-19T14:16:30;20.40;99.90
37050;DHT22;22958;51.232;6.826;2023-09-19T14:18:56;20.30;99.90
37050;DHT22;22958;51.232;6.826;2023-09-19T14:21:23;20.30;99.90
37050;DHT22;22958;51.232;6.826;2023-09-19T14:23:49;20.40;99.90
37050;DHT22;22958;51.232;6.826;2023-09-19T14:26:15;20.30;99.90
37050;DHT22;22958;51.232;6.826;2023-09-19T14:28:42;20.40;99.90
37050;DHT22;22958;51.232;6.826;2023-09-19T14:31:09;20.40;99.90
37050;DHT22;22958;51.232;6.826;2023-09-19T14:33:34;20.50;99.90
37050;DHT22;22958;51.232;6.826;2023-09-19T14:36:07;20.60;99.90
37050;DHT22;22958;51.232;6.826;2023-09-19T14:38:34;20.70;99.90
37050;DHT22;22958;51.232;6.826;2023-09-19T14:41:01;20.90;99.90
37050;DHT22;22958;51.232;6.826;2023-09-19T14:43:27;21.00;99.90
37050;DHT22;22958;51.232;6.826;2023-09-19T14:45:54;21.40;99.90
37050;DHT22;22958;51.232;6.826;2023-09-19T14:48:20;20.80;99.90
37050;DHT22;22958;51.232;6.826;2023-09-19T14:50:46;20.60;99.90
37050;DHT22;22958;51.232;6.826;2023-09-19T14:53:13;20.40;99.90
37050;DHT22;22958;51.232;6.826;2023-09-19T14:55:39;20.30;99.90
37050;DHT22;22958;51.232;6.826;2023-09-19T14:58:09;20.30;99.90
37050;DHT22;22958;51.232;6.826;2023-09-19T15:00:35;20.30;99.90
37050;DHT22;22958;51.232;6.826;2023-09-19T15:03:00;20.30;99.90
37050;DHT22;22958;51.232;6.826;2023-09-19T15:05:27;20.30;99.90
37050;DHT22;22958;51.232;6.826;2023-09-19T15:07:55;20.30;99.90
37050;DHT22;22958;51.232;6.826;2023-09-19T15:10:22;20.40;99.90
37050;DHT22;22958;51.232;6.826;2023-09-19T15:12:48;20.40;99.90
37050;DHT22;22958;51.232;6.826;2023-09-19T15:15:13;20.30;99.90
37050;DHT22;22958;51.232;6.826;2023-09-19T15:17:39;20.30;99.90
37050;DHT22;22958;51.232;6.826;2023-09-19T15:20:07;20.20;99.90
37050;DHT22;22958;51.232;6.826;2023-09-19T15:22:33;20.20;99.90
37050;DHT22;22958;51.232;6.826;2023-09-19T15:25:00;20.10;99.90
37050;DHT22;22958;51.232;6.826;2023-09-19T15:27:30;20.10;99.90
37050;DHT22;22958;51.232;6.826;2023-09-19T15:30:01;20.10;99.90
37050;DHT22;22958;51.232;6.826;2023-09-19T15:32:28;20.10;99.90
37050;DHT22;22958;51.232;6.826;2023-09-19T15:34:54;20.00;99.90
37050;DHT22;22958;51.232;6.826;2023-09-19T15:37:20;20.00;99.90
37050;DHT22;22958;51.232;6.826;2023-09-19T15:39:46;20.00;99.90
37050;DHT22;22958;51.232;6.826;2023-09-19T15:42:12;20.00;99.90
37050;DHT22;22958;51.232;6.826;2023-09-19T15:44:38;20.00;99.90
37050;DHT22;22958;51.232;6.826;2023-09-19T15:47:04;20.10;99.90
37050;DHT22;22958;51.232;6.826;2023-09-19T15:49:30;20.20;99.90
37050;DHT22;22958;51.232;6.826;2023-09-19T15:51:55;20.20;99.90
37050;DHT22;22958;51.232;6.826;2023-09-19T15:54:21;20.20;99.90
37050;DHT22;22958;51.232;6.826;2023-09-19T15:56:47;20.10;99.90
37050;DHT22;22958;51.232;6.826;2023-09-19T15:59:14;20.10;99.90
37050;DHT22;22958;51.232;6.826;2023-09-19T16:01:44;20.10;99.90
37050;DHT22;22958;51.232;6.826;2023-09-19T16:04:10;20.00;99.90
37050;DHT22;22958;51.232;6.826;2023-09-19T16:06:36;20.00;99.90
37050;DHT22;22958;51.232;6.826;2023-09-19T16:09:03;20.00;99.90
37050;DHT22;22958;51.232;6.826;2023-09-19T16:11:31;20.00;99.90
37050;DHT22;22958;51.232;6.826;2023-09-19T16:13:57;20.10;99.90
37050;DHT22;22958;51.232;6.826;2023-09-19T16:16:23;20.10;99.90
37050;DHT22;22958;51.232;6.826;2023-09-19T16:19:01;20.10;99.90
37050;DHT22;22958;51.232;6.826;2023-09-19T16:21:29;20.30;99.90
37050;DHT22;22958;51.232;6.826;2023-09-19T16:23:56;20.50;99.90
37050;DHT22;22958;51.232;6.826;2023-09-19T16:26:24;20.40;99.90
37050;DHT22;22958;51.232;6.826;2023-09-19T16:28:51;20.40;99.90
37050;DHT22;22958;51.232;6.826;2023-09-19T16:31:17;20.30;99.90